Time;durP1;ratioP1;P1;durP2;ratioP2;P2;SDS_P1;SDS_P2;PMS_P1;PMS_P2;Temp;Humidity;BMP_temperature;BMP_pressure;BME280_temperature;BME280_humidity;BME280_pressure;Samples;Min_cycle;Max_cycle;Signal;HPM_P1;HPM_P2
2023/10/12 00:00:24;;;;;;;5.55;4.70;;;19.00;73.10;;;;;;5133372;28;20176;-66
2023/10/12 00:02:52;;;;;;;5.20;4.80;;;19.00;73.10;;;;;;5132993;28;20224;-66
2023/10/12 00:05:18;;;;;;;5.50;5.00;;;19.00;73.00;;;;;;5133270;28;20172;-66
2023/10/12 00:07:45;;;;;;;5.18;4.78;;;19.00;73.10;;;;;;5133449;28;20177;-66
2023/10/12 00:12:41;;;;;;;5.72;5.05;;;19.00;73.10;;;;;;5133261;28;20180;-66
2023/10/12 00:15:22;;;;;;;5.15;4.75;;;19.00;73.00;;;;;;5132535;28;20183;-66
2023/10/12 00:17:51;;;;;;;5.05;4.65;;;19.00;73.00;;;;;;5133565;28;20241;-66
2023/10/12 00:22:58;;;;;;;5.55;4.95;;;19.00;73.10;;;;;;5133940;27;20307;-66
2023/10/12 00:25:25;;;;;;;5.47;4.97;;;19.00;73.00;;;;;;5137307;27;20176;-66
2023/10/12 00:27:51;;;;;;;5.47;4.97;;;19.00;73.00;;;;;;5137453;27;20189;-66
2023/10/12 00:30:17;;;;;;;7.40;5.20;;;19.00;73.00;;;;;;5136215;27;20554;-66
2023/10/12 00:32:45;;;;;;;4.95;4.55;;;19.00;73.10;;;;;;5137129;27;21058;-66
2023/10/12 00:35:11;;;;;;;4.80;4.40;;;19.00;73.10;;;;;;5136726;27;20635;-66
2023/10/12 00:37:37;;;;;;;5.35;4.85;;;19.00;73.10;;;;;;5136224;27;20183;-67
2023/10/12 00:40:23;;;;;;;5.00;4.60;;;19.00;73.10;;;;;;5137047;27;20259;-67
2023/10/12 00:42:53;;;;;;;5.55;4.97;;;19.00;73.10;;;;;;5137099;27;20219;-66
2023/10/12 00:45:20;;;;;;;5.30;4.90;;;19.00;73.10;;;;;;5135959;27;20205;-67
2023/10/12 00:47:48;;;;;;;5.45;4.95;;;19.00;73.10;;;;;;5136525;27;20231;-67
2023/10/12 00:50:15;;;;;;;5.45;4.95;;;19.00;73.10;;;;;;5135824;27;20176;-66
2023/10/12 00:52:57;;;;;;;5.30;4.80;;;19.00;73.10;;;;;;5118791;27;20187;-66
2023/10/12 00:55:34;;;;;;;5.30;4.80;;;19.00;73.10;;;;;;5136528;27;20251;-66
2023/10/12 00:58:01;;;;;;;4.97;4.57;;;19.00;73.10;;;;;;5135906;27;20191;-66
2023/10/12 01:00:27;;;;;;;5.28;4.78;;;19.00;73.10;;;;;;5136455;27;20169;-66
2023/10/12 01:03:27;;;;;;;5.40;4.90;;;19.00;73.10;;;;;;5136403;27;20566;-66
2023/10/12 01:08:34;;;;;;;5.55;4.97;;;19.00;73.20;;;;;;5120473;27;20182;-66
2023/10/12 01:11:06;;;;;;;5.05;4.55;;;19.00;73.10;;;;;;5136079;27;20173;-66
2023/10/12 01:13:35;;;;;;;7.68;4.97;;;19.00;73.20;;;;;;5135707;27;20571;-66
2023/10/12 01:16:15;;;;;;;4.78;4.38;;;19.00;73.20;;;;;;5136310;27;20184;-65
2023/10/12 01:18:44;;;;;;;4.65;4.25;;;19.00;73.20;;;;;;5135514;27;20184;-66
2023/10/12 01:21:11;;;;;;;5.50;5.00;;;19.00;73.20;;;;;;5135886;27;20173;-66
2023/10/12 01:23:41;;;;;;;5.30;4.80;;;19.00;73.20;;;;;;5135902;27;20291;-66
2023/10/12 01:26:13;;;;;;;5.05;4.65;;;19.00;73.20;;;;;;5135208;27;20168;-66
2023/10/12 01:28:39;;;;;;;5.35;4.85;;;19.00;73.20;;;;;;5135970;27;20179;-66
2023/10/12 01:31:05;;;;;;;4.90;4.50;;;19.00;73.20;;;;;;5136011;27;20176;-66
2023/10/12 01:33:30;;;;;;;5.20;4.80;;;19.00;73.20;;;;;;5116259;27;20168;-66
2023/10/12 01:35:56;;;;;;;5.15;4.65;;;19.00;73.20;;;;;;5135817;27;20569;-65
2023/10/12 01:38:22;;;;;;;5.28;4.78;;;19.00;73.30;;;;;;5135529;27;20263;-66
2023/10/12 01:40:54;;;;;;;5.18;4.68;;;19.00;73.20;;;;;;5135194;27;20314;-66
2023/10/12 01:43:20;;;;;;;5.13;4.63;;;19.00;73.20;;;;;;5135620;27;20295;-67
2023/10/12 01:45:54;;;;;;;5.28;4.88;;;19.00;73.20;;;;;;5135590;27;20726;-66
2023/10/12 01:48:22;;;;;;;5.03;4.40;;;18.90;73.20;;;;;;5134566;27;20223;-66
2023/10/12 01:50:49;;;;;;;4.93;4.53;;;18.90;73.20;;;;;;5135862;27;20165;-67
2023/10/12 01:53:26;;;;;;;5.90;5.40;;;18.90;73.20;;;;;;5135539;27;20214;-66
2023/10/12 01:55:52;;;;;;;5.30;4.90;;;19.00;73.20;;;;;;5134928;27;20183;-67
2023/10/12 01:58:18;;;;;;;5.53;5.03;;;18.90;73.20;;;;;;5135302;27;20180;-67
2023/10/12 02:00:52;;;;;;;5.40;4.90;;;18.90;73.20;;;;;;5134657;27;20196;-67
2023/10/12 02:03:26;;;;;;;5.00;4.60;;;18.90;73.20;;;;;;5134982;27;20226;-66
2023/10/12 02:05:58;;;;;;;7.32;5.00;;;19.00;73.30;;;;;;5135549;27;20190;-66
2023/10/12 02:08:39;;;;;;;5.50;4.78;;;19.00;73.30;;;;;;5134463;27;20199;-66
2023/10/12 02:11:26;;;;;;;5.63;5.13;;;18.90;73.30;;;;;;5135111;27;20168;-66
2023/10/12 02:13:54;;;;;;;5.22;4.82;;;18.90;73.30;;;;;;5134639;27;20184;-66
2023/10/12 02:16:32;;;;;;;4.93;4.53;;;18.90;73.30;;;;;;5134324;27;20180;-66
2023/10/12 02:19:04;;;;;;;5.30;4.80;;;18.90;73.30;;;;;;5135324;27;20181;-66
2023/10/12 02:21:33;;;;;;;5.55;4.60;;;19.00;73.40;;;;;;5134814;27;20188;-65
2023/10/12 02:24:11;;;;;;;5.32;4.80;;;18.90;73.40;;;;;;5134034;27;20183;-66
2023/10/12 02:26:38;;;;;;;5.10;4.65;;;18.90;73.30;;;;;;5135052;27;20203;-66
2023/10/12 02:31:54;;;;;;;5.35;4.85;;;18.90;73.40;;;;;;5134925;27;20187;-66
2023/10/12 02:34:26;;;;;;;7.75;5.07;;;18.90;73.40;;;;;;5134453;27;20180;-66
2023/10/12 02:37:16;;;;;;;5.35;4.95;;;18.90;73.40;;;;;;5134162;27;20176;-66
2023/10/12 02:39:42;;;;;;;4.65;4.25;;;18.90;73.40;;;;;;5134716;27;20255;-66
2023/10/12 02:42:17;;;;;;;5.65;4.95;;;18.90;73.40;;;;;;5134380;27;20287;-66
2023/10/12 02:47:22;;;;;;;4.90;4.50;;;18.90;73.40;;;;;;5134301;27;20288;-67
2023/10/12 02:52:36;;;;;;;4.60;4.30;;;18.90;73.40;;;;;;5134469;27;20305;-66
2023/10/12 03:00:49;;;;;;;5.53;5.03;;;18.90;73.40;;;;;;5088646;27;20215;-66
2023/10/12 03:03:24;;;;;;;5.68;5.13;;;18.90;73.40;;;;;;5133963;27;20262;-67
2023/10/12 03:05:51;;;;;;;5.28;4.78;;;18.90;73.40;;;;;;5133552;27;20581;-66
2023/10/12 03:08:19;;;;;;;5.25;4.75;;;18.90;73.40;;;;;;5115975;27;20184;-66
2023/10/12 03:11:11;;;;;;;4.60;4.20;;;18.90;73.40;;;;;;5133990;27;20177;-66
2023/10/12 03:13:35;;;;;;;4.47;4.07;;;18.90;74.30;;;;;;5133317;27;20176;-66
2023/10/12 03:18:46;;;;;;;5.85;5.28;;;18.90;73.50;;;;;;5133457;27;20221;-66
2023/10/12 03:21:11;;;;;;;4.35;3.95;;;18.90;73.50;;;;;;5133905;27;20168;-66
2023/10/12 03:23:46;;;;;;;5.53;4.75;;;18.90;73.40;;;;;;5133828;27;20302;-66
2023/10/12 03:26:24;;;;;;;5.10;4.60;;;18.90;73.50;;;;;;5132782;27;20209;-66
2023/10/12 03:31:40;;;;;;;5.10;4.63;;;18.90;73.50;;;;;;5133993;27;20221;-67
2023/10/12 03:34:16;;;;;;;4.60;4.20;;;18.90;73.50;;;;;;5132915;27;20172;-69
2023/10/12 03:36:47;;;;;;;5.53;5.00;;;18.90;73.40;;;;;;5133696;27;20176;-66
2023/10/12 03:47:29;;;;;;;4.57;4.18;;;18.90;73.50;;;;;;5132452;27;20220;-67
2023/10/12 03:49:57;;;;;;;4.47;4.10;;;18.90;73.50;;;;;;5133930;27;20203;-66
2023/10/12 03:55:09;;;;;;;4.60;4.20;;;18.90;73.50;;;;;;5133089;28;20172;-66
2023/10/12 04:02:53;;;;;;;4.13;3.80;;;18.90;73.50;;;;;;5137811;27;20210;-66
2023/10/12 04:06:07;;;;;;;5.05;4.55;;;18.90;73.60;;;;;;5137595;27;20183;-67
2023/10/12 04:21:22;;;;;;;4.50;4.10;;;18.90;73.50;;;;;;5136586;27;20167;-66
2023/10/12 04:24:27;;;;;;;4.60;4.20;;;18.90;73.60;;;;;;5137569;27;20300;-66
2023/10/12 04:29:00;;;;;;;4.13;3.83;;;18.90;73.50;;;;;;5136340;27;20539;-66
2023/10/12 04:36:34;;;;;;;4.95;4.45;;;18.90;73.60;;;;;;5136072;27;20266;-66
2023/10/12 04:41:38;;;;;;;5.18;4.40;;;18.80;73.60;;;;;;5137126;27;20544;-67
2023/10/12 04:47:06;;;;;;;4.75;4.35;;;18.90;73.70;;;;;;5090753;27;20192;-67
2023/10/12 04:52:15;;;;;;;4.85;3.72;;;18.80;73.60;;;;;;5136894;27;20169;-66
2023/10/12 04:57:26;;;;;;;4.75;4.35;;;18.90;73.70;;;;;;5135931;27;20186;-67
2023/10/12 05:00:11;;;;;;;4.53;4.15;;;18.80;73.60;;;;;;5137109;27;20168;-67
2023/10/12 05:10:26;;;;;;;4.38;4.07;;;18.80;73.60;;;;;;5136147;27;20211;-67
2023/10/12 05:12:52;;;;;;;4.00;3.70;;;18.80;73.60;;;;;;5136600;27;20213;-67
2023/10/12 05:15:20;;;;;;;4.45;4.00;;;18.80;73.60;;;;;;5136238;27;20251;-67
2023/10/12 05:17:46;;;;;;;3.97;3.58;;;18.80;73.60;;;;;;5135494;27;20927;-66
2023/10/12 05:20:11;;;;;;;3.95;3.58;;;18.90;73.70;;;;;;5136005;27;20172;-67
2023/10/12 05:22:37;;;;;;;4.50;4.10;;;18.80;73.60;;;;;;5135994;27;20201;-66
2023/10/12 05:25:04;;;;;;;4.00;3.70;;;18.90;73.70;;;;;;5135256;27;20168;-66
2023/10/12 05:27:38;;;;;;;4.50;4.13;;;18.80;73.60;;;;;;5136111;27;20224;-67
2023/10/12 05:30:06;;;;;;;4.03;3.72;;;18.80;73.60;;;;;;5135858;27;20623;-66
2023/10/12 05:32:42;;;;;;;3.80;3.50;;;18.80;73.60;;;;;;5134938;27;20675;-67
2023/10/12 05:35:15;;;;;;;4.05;3.75;;;18.80;73.60;;;;;;5135938;27;20590;-66
2023/10/12 05:37:48;;;;;;;3.38;3.08;;;18.80;73.60;;;;;;5135717;27;20184;-66
2023/10/12 05:40:15;;;;;;;4.30;3.90;;;18.80;73.60;;;;;;5135256;27;20179;-67
2023/10/12 05:42:43;;;;;;;3.97;3.67;;;18.80;73.70;;;;;;5135746;27;20212;-66
2023/10/12 05:47:44;;;;;;;3.95;3.53;;;18.80;73.70;;;;;;5134773;27;20234;-67
2023/10/12 05:50:15;;;;;;;3.97;3.45;;;18.80;73.70;;;;;;5135275;27;20177;-66
2023/10/12 05:52:40;;;;;;;4.82;3.80;;;18.90;73.80;;;;;;5134879;27;20180;-66
2023/10/12 05:55:19;;;;;;;3.35;3.15;;;18.80;73.70;;;;;;5135310;27;20164;-67
2023/10/12 05:57:44;;;;;;;3.58;3.28;;;18.80;73.70;;;;;;5135566;27;20184;-67
2023/10/12 06:00:11;;;;;;;3.90;3.50;;;18.80;73.70;;;;;;5134452;27;20171;-66
2023/10/12 06:02:37;;;;;;;3.67;3.38;;;18.90;73.80;;;;;;5116793;27;20235;-66
2023/10/12 06:05:05;;;;;;;3.85;3.45;;;18.80;73.70;;;;;;5135384;27;20203;-66
2023/10/12 06:07:31;;;;;;;3.33;3.10;;;18.80;73.70;;;;;;5134584;27;20581;-66
2023/10/12 06:09:56;;;;;;;3.42;3.13;;;18.80;73.70;;;;;;5135412;27;20642;-66
2023/10/12 06:12:24;;;;;;;3.65;3.35;;;18.80;73.70;;;;;;5134983;27;20196;-66
2023/10/12 06:14:53;;;;;;;3.33;3.03;;;18.80;73.70;;;;;;5134523;27;20194;-66
2023/10/12 06:17:30;;;;;;;3.97;3.42;;;18.80;73.80;;;;;;5134683;27;20172;-66
2023/10/12 06:20:10;;;;;;;3.97;3.63;;;18.80;73.80;;;;;;5135103;27;20657;-66
2023/10/12 06:22:36;;;;;;;3.03;2.83;;;18.80;73.80;;;;;;5134181;27;20662;-66
2023/10/12 06:25:04;;;;;;;3.25;2.97;;;18.80;73.80;;;;;;5134780;27;20180;-65
2023/10/12 06:27:30;;;;;;;4.03;3.45;;;18.80;73.70;;;;;;5134819;27;20227;-65
2023/10/12 06:30:02;;;;;;;3.50;3.10;;;18.80;73.80;;;;;;5134198;27;20574;-65
2023/10/12 06:32:31;;;;;;;3.33;3.10;;;18.80;73.80;;;;;;5134760;27;20208;-65
2023/10/12 06:40:37;;;;;;;3.67;3.38;;;18.80;73.80;;;;;;5134529;27;20697;-66
2023/10/12 06:45:47;;;;;;;3.30;3.00;;;18.80;73.90;;;;;;5114095;28;20180;-65
2023/10/12 06:51:04;;;;;;;3.85;3.05;;;18.80;73.80;;;;;;5113620;28;20210;-66
2023/10/12 06:53:36;;;;;;;3.88;2.95;;;18.80;73.90;;;;;;5113859;28;20177;-66
2023/10/12 06:59:11;;;;;;;3.30;3.00;;;18.80;73.90;;;;;;5113749;28;20187;-64
2023/10/12 07:01:39;;;;;;;7.30;3.75;;;18.80;73.80;;;;;;5113276;28;20654;-66
2023/10/12 07:04:12;;;;;;;4.28;3.53;;;18.90;74.10;;;;;;5112732;28;20246;-66
2023/10/12 07:06:39;;;;;;;4.82;2.55;;;18.80;73.90;;;;;;5113373;28;20226;-66
2023/10/12 07:09:06;;;;;;;3.95;3.25;;;18.80;73.90;;;;;;5113518;28;20188;-65
2023/10/12 07:11:31;;;;;;;7.25;3.20;;;18.80;74.30;;;;;;5112849;28;20177;-63
2023/10/12 07:14:04;;;;;;;3.50;2.95;;;18.80;74.10;;;;;;5113623;28;20172;-65
2023/10/12 07:16:31;;;;;;;4.47;2.80;;;18.80;74.00;;;;;;5113487;28;20188;-65
2023/10/12 07:18:58;;;;;;;3.83;2.83;;;18.80;74.10;;;;;;5112776;28;20238;-65
2023/10/12 07:21:23;;;;;;;2.78;2.50;;;18.80;74.10;;;;;;5113413;28;20177;-64
2023/10/12 07:23:52;;;;;;;4.35;2.92;;;18.80;74.20;;;;;;5113247;28;20608;-63
2023/10/12 07:26:22;;;;;;;3.58;3.10;;;18.80;74.10;;;;;;5112556;28;20228;-63
2023/10/12 07:28:49;;;;;;;4.78;2.83;;;18.90;74.20;;;;;;5113246;28;20203;-64
2023/10/12 07:36:44;;;;;;;5.90;3.22;;;18.90;74.10;;;;;;5112823;28;20184;-63
2023/10/12 07:39:20;;;;;;;5.60;3.25;;;18.90;74.20;;;;;;5112310;28;20179;-64
2023/10/12 07:44:27;;;;;;;5.57;3.08;;;19.00;74.20;;;;;;5112993;28;20184;-65
2023/10/12 07:46:56;;;;;;;3.10;2.70;;;18.90;74.10;;;;;;5112304;28;20169;-66
2023/10/12 07:49:38;;;;;;;3.70;2.60;;;18.80;74.00;;;;;;5112460;28;20270;-65
2023/10/12 07:54:47;;;;;;;5.68;2.90;;;18.80;74.10;;;;;;5112238;28;20176;-65
2023/10/12 07:57:14;;;;;;;3.78;3.10;;;18.80;74.20;;;;;;5112649;28;20173;-66
2023/10/12 08:02:59;;;;;;;3.03;2.72;;;18.80;74.20;;;;;;5112588;28;20554;-65
2023/10/12 08:05:18;;;;;;;4.78;2.35;;;18.80;74.20;;;;;;5112646;28;20173;-65
2023/10/12 08:13:14;;;;;;;4.10;2.60;;;18.80;74.20;;;;;;5112913;28;20639;-65
2023/10/12 08:15:49;;;;;;;4.53;2.80;;;18.80;74.20;;;;;;5112196;28;20242;-65
2023/10/12 08:21:01;;;;;;;3.83;2.75;;;18.80;74.20;;;;;;5111861;28;20172;-65
2023/10/12 08:23:26;;;;;;;3.65;2.63;;;18.80;74.20;;;;;;5112605;28;20296;-64
2023/10/12 08:25:57;;;;;;;3.60;2.38;;;18.80;74.20;;;;;;5112622;28;20196;-64
2023/10/12 08:28:25;;;;;;;2.97;2.78;;;18.80;74.20;;;;;;5111807;28;20188;-64
2023/10/12 08:31:00;;;;;;;8.27;3.15;;;18.80;74.20;;;;;;5112925;28;20169;-65
2023/10/12 08:38:53;;;;;;;4.32;2.45;;;18.80;74.10;;;;;;5112492;28;20565;-64
2023/10/12 08:43:59;;;;;;;2.95;2.20;;;18.80;74.10;;;;;;5114034;28;20289;-66
2023/10/12 08:49:34;;;;;;;3.00;2.67;;;18.80;74.10;;;;;;5115247;28;20309;-66
2023/10/12 08:52:04;;;;;;;2.50;2.22;;;18.80;74.00;;;;;;5116224;28;20196;-66
2023/10/12 08:54:37;;;;;;;2.40;2.20;;;18.80;74.10;;;;;;5116069;28;20181;-66
2023/10/12 08:57:03;;;;;;;2.50;2.30;;;18.80;74.10;;;;;;5097193;28;20227;-66
2023/10/12 08:59:29;;;;;;;2.85;2.20;;;18.80;74.10;;;;;;5097864;28;20234;-66
2023/10/12 09:02:03;;;;;;;4.10;2.38;;;18.80;74.10;;;;;;5098083;28;20168;-65
2023/10/12 09:04:29;;;;;;;2.65;2.22;;;18.80;74.00;;;;;;5115412;28;20294;-66
2023/10/12 09:06:56;;;;;;;2.63;2.30;;;18.80;74.10;;;;;;5098122;28;20177;-65
2023/10/12 09:12:11;;;;;;;2.63;2.10;;;18.80;74.10;;;;;;5115714;28;20221;-66
2023/10/12 09:14:43;;;;;;;2.55;2.03;;;18.80;74.10;;;;;;5116022;28;20173;-66
2023/10/12 09:17:15;;;;;;;1.92;1.83;;;18.80;74.10;;;;;;5115041;28;20181;-66
2023/10/12 09:19:46;;;;;;;2.83;2.35;;;18.80;74.10;;;;;;5115885;28;20173;-66
2023/10/12 09:22:12;;;;;;;2.72;2.25;;;18.80;74.00;;;;;;5097790;28;20666;-66
2023/10/12 09:24:37;;;;;;;3.40;2.50;;;18.80;74.00;;;;;;5114909;28;20177;-66
2023/10/12 09:27:14;;;;;;;2.20;1.92;;;18.80;74.00;;;;;;5097158;28;20509;-66
2023/10/12 09:29:57;;;;;;;2.47;2.28;;;18.80;73.90;;;;;;5115542;28;20647;-66
2023/10/12 09:32:25;;;;;;;3.60;2.08;;;18.80;73.80;;;;;;5114643;28;20177;-66
2023/10/12 09:37:22;;;;;;;2.40;2.13;;;18.80;73.70;;;;;;5115079;28;20655;-67
2023/10/12 09:39:48;;;;;;;2.25;1.95;;;18.80;73.70;;;;;;5114795;28;20173;-66
2023/10/12 09:42:34;;;;;;;2.63;2.28;;;18.80;73.70;;;;;;5115196;28;20204;-66
2023/10/12 09:45:04;;;;;;;2.25;1.80;;;18.80;73.70;;;;;;5095903;28;20547;-66
2023/10/12 09:47:43;;;;;;;2.28;2.08;;;18.80;73.70;;;;;;5097697;28;20221;-66
2023/10/12 09:50:13;;;;;;;2.85;1.92;;;18.80;73.80;;;;;;5115267;28;20183;-66
2023/10/12 09:52:46;;;;;;;2.30;2.05;;;18.80;73.70;;;;;;5114271;28;20177;-66
2023/10/12 09:55:15;;;;;;;2.10;1.90;;;18.80;73.80;;;;;;5097403;28;20175;-66
2023/10/12 09:57:49;;;;;;;3.00;1.73;;;18.80;73.80;;;;;;5097411;28;20400;-67
2023/10/12 10:03:09;;;;;;;2.08;1.88;;;18.80;73.80;;;;;;5086256;28;20235;-67
2023/10/12 10:08:29;;;;;;;2.30;1.98;;;18.80;73.80;;;;;;5099243;28;20646;-66
2023/10/12 10:10:57;;;;;;;2.58;1.90;;;18.70;73.80;;;;;;5097738;28;20173;-66
2023/10/12 10:13:39;;;;;;;2.35;2.15;;;18.80;73.80;;;;;;5079704;28;20180;-66
2023/10/12 10:16:08;;;;;;;2.20;2.00;;;18.80;73.80;;;;;;5114619;28;20252;-66
2023/10/12 10:18:49;;;;;;;3.53;2.33;;;18.80;73.80;;;;;;5114589;28;20180;-66
2023/10/12 10:21:22;;;;;;;2.90;2.20;;;18.80;74.00;;;;;;5117364;27;20266;-66
2023/10/12 10:23:52;;;;;;;3.35;2.08;;;18.80;73.80;;;;;;5128113;27;20219;-66
2023/10/12 10:26:30;;;;;;;2.80;1.80;;;18.80;73.70;;;;;;5117883;27;20185;-65
2023/10/12 10:28:58;;;;;;;2.90;2.10;;;18.80;73.80;;;;;;5116633;27;20184;-66
2023/10/12 10:31:26;;;;;;;2.33;2.00;;;18.80;73.70;;;;;;5134634;27;20549;-66
2023/10/12 10:33:57;;;;;;;3.40;2.17;;;18.80;73.80;;;;;;5134830;27;20185;-65
2023/10/12 10:36:26;;;;;;;2.08;1.98;;;18.80;73.70;;;;;;5116998;27;20173;-66
2023/10/12 10:41:18;;;;;;;2.70;2.00;;;18.80;73.70;;;;;;5125307;27;20690;-66
2023/10/12 10:43:44;;;;;;;3.47;1.90;;;18.80;73.80;;;;;;5116242;27;20208;-66
2023/10/12 10:46:10;;;;;;;3.30;1.95;;;18.80;73.70;;;;;;5134500;27;20176;-65
2023/10/12 10:48:39;;;;;;;3.70;2.42;;;18.80;73.70;;;;;;5133577;27;20245;-66
2023/10/12 10:51:18;;;;;;;2.28;2.00;;;18.80;73.70;;;;;;5134354;27;20259;-66
2023/10/12 10:53:51;;;;;;;1.98;1.77;;;18.80;73.70;;;;;;5134381;27;20539;-65
2023/10/12 10:56:16;;;;;;;2.50;2.17;;;18.80;73.80;;;;;;5115857;27;20218;-65
2023/10/12 10:58:45;;;;;;;2.42;2.10;;;18.80;73.70;;;;;;5113916;28;20271;-66
2023/10/12 11:01:12;;;;;;;2.53;2.15;;;18.80;73.70;;;;;;5113404;28;20181;-66
2023/10/12 11:03:39;;;;;;;3.05;2.00;;;18.80;73.70;;;;;;5113038;28;20269;-65
2023/10/12 11:06:23;;;;;;;3.55;2.15;;;18.80;73.70;;;;;;5112776;28;20628;-65
2023/10/12 11:09:13;;;;;;;1.92;1.83;;;18.80;74.50;;;;;;5113677;28;20183;-65
2023/10/12 11:11:45;;;;;;;2.47;2.28;;;18.80;73.70;;;;;;5113593;28;20173;-66
2023/10/12 11:14:11;;;;;;;2.55;1.88;;;18.80;73.70;;;;;;5113497;28;20181;-65
2023/10/12 11:16:37;;;;;;;3.10;2.55;;;18.80;73.70;;;;;;5112770;28;20209;-65
2023/10/12 11:19:03;;;;;;;2.67;2.08;;;18.80;73.70;;;;;;5094896;28;20226;-65
2023/10/12 11:21:29;;;;;;;3.65;2.00;;;18.80;73.70;;;;;;5095072;28;20177;-65
2023/10/12 11:24:03;;;;;;;2.15;1.83;;;18.80;74.00;;;;;;5093942;28;20209;-65
2023/10/12 11:26:29;;;;;;;4.43;1.80;;;18.80;73.80;;;;;;5113132;28;20184;-65
2023/10/12 11:29:04;;;;;;;3.60;2.10;;;18.80;74.10;;;;;;5117706;27;20194;-63
2023/10/12 11:31:30;;;;;;;2.42;2.05;;;18.80;74.20;;;;;;5132967;27;20247;-64
2023/10/12 11:33:56;;;;;;;4.20;1.90;;;18.80;74.00;;;;;;5133857;27;20172;-64
2023/10/12 11:36:23;;;;;;;3.65;2.22;;;18.80;73.90;;;;;;5133665;27;20237;-64
2023/10/12 11:38:59;;;;;;;1.98;1.70;;;18.80;73.90;;;;;;5133245;27;20172;-66
2023/10/12 11:41:25;;;;;;;2.33;1.80;;;18.90;73.90;;;;;;5133436;27;20675;-65
2023/10/12 11:43:54;;;;;;;3.17;1.95;;;18.90;73.80;;;;;;5133479;27;20227;-66
2023/10/12 11:46:21;;;;;;;3.50;2.05;;;18.90;73.80;;;;;;5132520;27;20174;-65
2023/10/12 11:49:01;;;;;;;2.15;1.90;;;18.90;74.70;;;;;;5133362;27;20258;-67
2023/10/12 11:51:27;;;;;;;2.15;1.90;;;18.90;73.90;;;;;;5132741;27;20178;-66
2023/10/12 11:53:53;;;;;;;3.05;2.13;;;18.90;73.90;;;;;;5133688;27;20255;-66
2023/10/12 11:56:22;;;;;;;3.63;2.08;;;18.90;73.90;;;;;;5133010;27;20627;-65
2023/10/12 11:58:54;;;;;;;2.10;1.75;;;18.90;73.90;;;;;;5132757;28;20183;-67
2023/10/12 12:01:22;;;;;;;2.55;1.90;;;18.90;74.00;;;;;;5133298;28;20183;-65
2023/10/12 12:03:59;;;;;;;3.00;1.98;;;18.90;74.00;;;;;;5133513;28;20562;-65
2023/10/12 12:06:26;;;;;;;1.83;1.73;;;18.80;74.00;;;;;;5132707;28;20259;-64
2023/10/12 12:08:56;;;;;;;3.00;1.65;;;18.90;74.00;;;;;;5133357;28;20646;-65
2023/10/12 12:11:31;;;;;;;2.33;2.08;;;18.90;74.00;;;;;;5132992;28;20220;-64
2023/10/12 12:13:59;;;;;;;1.80;1.63;;;18.80;73.90;;;;;;5132737;28;20581;-64
2023/10/12 12:16:24;;;;;;;4.00;2.10;;;18.90;74.00;;;;;;5133216;28;20233;-64
2023/10/12 12:18:51;;;;;;;2.10;1.70;;;18.90;74.00;;;;;;5136532;27;20199;-65
2023/10/12 12:21:18;;;;;;;1.70;1.60;;;18.90;74.00;;;;;;5136320;27;20205;-64
2023/10/12 12:23:48;;;;;;;2.10;1.73;;;18.90;74.10;;;;;;5137181;27;20220;-68
2023/10/12 12:26:16;;;;;;;1.98;1.77;;;18.90;74.00;;;;;;5137053;27;20534;-63
2023/10/12 12:28:45;;;;;;;2.30;1.90;;;18.90;74.20;;;;;;5133453;27;20177;-64
2023/10/12 12:31:14;;;;;;;2.00;1.50;;;18.90;74.10;;;;;;5116444;28;20177;-63
2023/10/12 12:33:43;;;;;;;2.90;2.10;;;18.90;74.10;;;;;;5115808;28;20174;-64
2023/10/12 12:36:12;;;;;;;2.92;1.90;;;18.90;74.10;;;;;;5116377;28;20177;-64
2023/10/12 12:38:45;;;;;;;3.13;1.80;;;18.90;74.20;;;;;;5116632;28;20176;-64
2023/10/12 12:41:19;;;;;;;5.00;2.30;;;18.90;74.10;;;;;;5115401;28;20689;-64
2023/10/12 12:43:48;;;;;;;4.38;2.20;;;18.90;74.10;;;;;;5116277;28;20240;-64
2023/10/12 12:46:13;;;;;;;2.65;1.92;;;18.90;74.20;;;;;;5116145;28;20173;-65
2023/10/12 12:48:39;;;;;;;2.28;1.60;;;18.90;75.00;;;;;;5115244;28;20626;-65
2023/10/12 12:51:11;;;;;;;2.72;1.95;;;18.90;74.20;;;;;;5115999;28;20173;-65
2023/10/12 12:53:37;;;;;;;2.67;2.17;;;18.90;74.20;;;;;;5116343;28;20173;-66
2023/10/12 12:56:02;;;;;;;2.25;1.77;;;18.90;74.20;;;;;;5115277;28;20662;-65
2023/10/12 12:58:32;;;;;;;1.90;1.73;;;18.90;74.20;;;;;;5115982;28;20287;-66
2023/10/12 13:01:00;;;;;;;3.05;1.70;;;18.90;74.20;;;;;;5116033;28;20238;-63
2023/10/12 13:03:25;;;;;;;1.90;1.70;;;18.90;74.20;;;;;;5115033;28;20209;-65
2023/10/12 13:05:54;;;;;;;3.17;1.92;;;18.90;74.20;;;;;;5116353;28;20226;-65
2023/10/12 13:08:19;;;;;;;2.20;1.67;;;18.90;74.30;;;;;;5115784;28;20181;-64
2023/10/12 13:10:45;;;;;;;2.85;2.63;;;18.90;75.00;;;;;;5115298;28;20683;-65
2023/10/12 13:13:12;;;;;;;3.38;2.97;;;18.90;74.30;;;;;;5115615;28;20196;-65
2023/10/12 13:15:47;;;;;;;2.75;2.55;;;18.90;75.20;;;;;;5116087;28;20272;-65
2023/10/12 13:18:15;;;;;;;3.08;1.95;;;18.90;74.50;;;;;;5115743;28;20184;-64
2023/10/12 13:20:46;;;;;;;2.80;2.03;;;18.90;74.40;;;;;;5115790;28;20174;-64
2023/10/12 13:23:17;;;;;;;3.45;2.30;;;18.90;74.30;;;;;;5114729;28;20262;-65
2023/10/12 13:25:42;;;;;;;4.55;2.22;;;18.90;74.40;;;;;;5115666;28;20208;-65
2023/10/12 13:28:10;;;;;;;3.25;2.15;;;18.90;74.30;;;;;;5115295;28;20208;-64
2023/10/12 13:30:36;;;;;;;2.25;2.00;;;18.90;74.30;;;;;;5132991;27;20169;-66
2023/10/12 13:33:05;;;;;;;3.90;2.17;;;18.90;74.30;;;;;;5136011;27;20259;-66
2023/10/12 13:35:42;;;;;;;2.10;1.90;;;18.90;74.30;;;;;;5136049;27;20169;-66
2023/10/12 13:38:11;;;;;;;3.60;2.10;;;18.90;74.30;;;;;;5135091;27;20223;-65
2023/10/12 13:40:37;;;;;;;2.42;2.22;;;18.90;74.30;;;;;;5135656;27;20168;-66
2023/10/12 13:43:15;;;;;;;2.40;2.00;;;18.90;74.30;;;;;;5135417;27;20689;-66
2023/10/12 13:45:49;;;;;;;2.63;2.00;;;18.90;74.30;;;;;;5135157;27;20347;-66
2023/10/12 13:48:21;;;;;;;2.00;1.80;;;18.90;74.30;;;;;;5135266;27;20219;-65
2023/10/12 13:51:01;;;;;;;2.30;1.95;;;18.90;74.30;;;;;;5135679;27;20187;-66
2023/10/12 13:53:39;;;;;;;2.30;2.03;;;18.90;74.30;;;;;;5135320;27;20182;-65
2023/10/12 13:56:07;;;;;;;1.80;1.70;;;18.90;74.30;;;;;;5135210;27;20591;-65
2023/10/12 13:58:34;;;;;;;3.95;2.28;;;18.90;74.30;;;;;;5133982;27;20251;-65
2023/10/12 14:01:02;;;;;;;3.15;2.03;;;18.90;74.30;;;;;;5134233;27;20196;-65
2023/10/12 14:03:28;;;;;;;2.92;2.47;;;18.90;74.40;;;;;;5135045;27;20227;-65
2023/10/12 14:05:56;;;;;;;4.60;2.20;;;18.90;74.30;;;;;;5133728;27;20398;-64
2023/10/12 14:08:21;;;;;;;2.33;1.83;;;18.90;74.30;;;;;;5135228;27;20184;-64
2023/10/12 14:10:47;;;;;;;1.80;1.70;;;18.90;74.30;;;;;;5135562;27;20173;-65
2023/10/12 14:13:13;;;;;;;2.08;1.70;;;18.90;74.30;;;;;;5134333;27;20278;-65
2023/10/12 14:15:43;;;;;;;2.75;2.00;;;18.90;74.40;;;;;;5135281;27;20173;-65
2023/10/12 14:18:11;;;;;;;3.25;2.25;;;18.90;74.30;;;;;;5134862;27;20195;-64
2023/10/12 14:20:37;;;;;;;5.68;2.33;;;18.90;74.40;;;;;;5134625;27;20217;-64
2023/10/12 14:23:05;;;;;;;3.70;2.17;;;18.90;74.40;;;;;;5134982;27;20230;-64
2023/10/12 14:25:38;;;;;;;3.55;2.22;;;18.80;74.30;;;;;;5134943;27;20184;-64
2023/10/12 14:28:07;;;;;;;2.55;2.35;;;18.80;74.30;;;;;;5134176;27;20188;-64
2023/10/12 14:30:33;;;;;;;2.47;2.13;;;18.90;74.30;;;;;;5115874;27;20538;-66
2023/10/12 14:33:02;;;;;;;2.25;1.90;;;18.90;74.30;;;;;;5114349;28;20222;-66
2023/10/12 14:35:31;;;;;;;2.10;1.80;;;18.80;75.10;;;;;;5113582;28;20179;-66
2023/10/12 14:37:57;;;;;;;2.47;2.03;;;18.80;74.40;;;;;;5114394;28;20177;-65
2023/10/12 14:40:31;;;;;;;3.78;2.50;;;18.90;74.30;;;;;;5113030;28;20550;-65
2023/10/12 14:42:58;;;;;;;2.78;2.58;;;18.80;74.30;;;;;;5113663;28;20577;-65
2023/10/12 14:45:24;;;;;;;3.90;2.90;;;18.80;74.30;;;;;;5113783;28;20252;-66
2023/10/12 14:47:51;;;;;;;3.53;2.50;;;18.90;74.40;;;;;;5113449;28;20260;-65
2023/10/12 14:50:17;;;;;;;2.70;2.35;;;18.80;74.40;;;;;;5113866;28;20226;-65
2023/10/12 14:52:43;;;;;;;2.58;2.17;;;18.90;74.40;;;;;;5113973;28;20260;-65
2023/10/12 14:55:10;;;;;;;2.75;2.25;;;18.80;74.40;;;;;;5112951;28;20256;-65
2023/10/12 14:57:38;;;;;;;3.55;2.42;;;18.90;74.40;;;;;;5113826;28;20636;-66
2023/10/12 15:00:22;;;;;;;3.28;2.53;;;18.90;74.30;;;;;;5113512;28;20234;-65
2023/10/12 15:02:57;;;;;;;2.92;2.50;;;18.90;74.30;;;;;;5112865;28;20265;-65
2023/10/12 15:05:27;;;;;;;3.40;2.58;;;18.90;74.20;;;;;;5113488;28;20225;-65
2023/10/12 15:07:55;;;;;;;4.32;2.25;;;18.90;74.20;;;;;;5113613;28;20658;-65
2023/10/12 15:10:20;;;;;;;2.42;2.20;;;18.90;74.20;;;;;;5112558;28;20177;-65
2023/10/12 15:12:50;;;;;;;2.40;2.20;;;18.90;74.20;;;;;;5113512;28;20535;-65
2023/10/12 15:15:20;;;;;;;3.58;2.28;;;18.90;74.30;;;;;;5113401;28;20184;-65
2023/10/12 15:17:46;;;;;;;2.60;2.15;;;18.90;74.20;;;;;;5113631;28;20165;-65
2023/10/12 15:20:18;;;;;;;2.38;2.17;;;18.90;74.20;;;;;;5113115;28;20173;-64
2023/10/12 15:22:44;;;;;;;3.58;2.20;;;18.90;74.20;;;;;;5112495;28;20342;-65
2023/10/12 15:25:15;;;;;;;3.58;2.38;;;18.90;74.20;;;;;;5112990;28;20165;-65
2023/10/12 15:27:40;;;;;;;2.85;2.17;;;18.90;74.20;;;;;;5113386;28;20197;-65